Time;durP1;ratioP1;P1;durP2;ratioP2;P2;SDS_P1;SDS_P2;PMS_P1;PMS_P2;Temp;Humidity;BMP_temperature;BMP_pressure;BME280_temperature;BME280_humidity;BME280_pressure;Samples;Min_cycle;Max_cycle;Signal;HPM_P1;HPM_P2
2023/08/07 04:01:47;;;;;;;0.70;0.47;;;13.80;99.90;;;;;;5333029;23;20505;-74
2023/08/07 04:04:15;;;;;;;0.60;0.20;;;;;;;;;;4935561;29;20478;-72
2023/08/07 04:06:44;;;;;;;0.60;0.30;;;13.80;99.90;;;;;;4937310;29;20458;-73
2023/08/07 04:09:12;;;;;;;0.70;0.50;;;13.80;99.90;;;;;;4937351;29;21006;-73
2023/08/07 04:11:41;;;;;;;0.60;0.10;;;13.90;99.90;;;;;;4950800;29;20509;-73
2023/08/07 04:14:09;;;;;;;1.23;0.40;;;13.90;99.90;;;;;;4961343;29;20499;-73
2023/08/07 04:16:37;;;;;;;0.60;0.10;;;13.90;99.90;;;;;;4959658;29;20535;-73
2023/08/07 04:19:07;;;;;;;0.60;0.10;;;14.00;99.90;;;;;;4957201;29;20496;-73
2023/08/07 04:21:35;;;;;;;0.60;0.10;;;14.00;99.90;;;;;;4956379;28;20544;-73
2023/08/07 04:24:10;;;;;;;0.70;0.37;;;14.00;99.90;;;;;;4956376;28;20455;-74
2023/08/07 04:26:38;;;;;;;0.60;0.10;;;14.00;99.90;;;;;;4956469;28;20527;-73
2023/08/07 04:29:07;;;;;;;0.60;0.20;;;14.10;99.90;;;;;;4956376;28;20444;-72
2023/08/07 04:31:35;;;;;;;7.70;0.83;;;14.10;99.90;;;;;;4954138;28;20522;-73
2023/08/07 04:34:03;;;;;;;0.60;0.30;;;14.10;99.90;;;;;;4952691;28;20463;-73
2023/08/07 04:36:33;;;;;;;0.60;0.30;;;14.10;99.90;;;;;;4953586;29;20512;-74
2023/08/07 04:39:01;;;;;;;1.03;0.60;;;14.10;99.90;;;;;;4956200;29;20449;-73
2023/08/07 04:41:29;;;;;;;0.60;0.10;;;14.10;99.90;;;;;;4953000;28;20507;-72
2023/08/07 04:43:57;;;;;;;1.00;0.53;;;14.10;99.90;;;;;;4942116;29;20933;-73
2023/08/07 04:46:24;;;;;;;6.80;1.97;;;14.10;99.90;;;;;;4952866;29;20540;-73
2023/08/07 04:48:54;;;;;;;30.87;1.07;;;14.00;99.90;;;;;;4955930;29;20445;-72
2023/08/07 04:51:22;;;;;;;0.90;0.30;;;14.10;99.90;;;;;;4955438;28;20464;-73
2023/08/07 04:53:51;;;;;;;0.60;0.40;;;14.20;99.90;;;;;;4950839;29;20448;-73
2023/08/07 04:56:19;;;;;;;0.60;0.20;;;14.20;99.90;;;;;;4947414;29;20498;-73
2023/08/07 04:58:47;;;;;;;0.60;0.10;;;14.20;99.90;;;;;;4936725;29;20822;-73
2023/08/07 05:01:15;;;;;;;0.70;0.60;;;14.30;99.90;;;;;;4936358;29;20533;-73
2023/08/07 05:03:43;;;;;;;2.20;0.87;;;14.30;99.90;;;;;;4943636;29;20469;-72
2023/08/07 05:06:11;;;;;;;0.67;0.27;;;14.20;99.90;;;;;;4952149;28;20471;-72
2023/08/07 05:08:39;;;;;;;0.60;0.10;;;14.30;99.90;;;;;;4948702;29;20445;-72
2023/08/07 05:11:08;;;;;;;0.70;0.20;;;14.40;99.90;;;;;;4955936;28;20493;-72
2023/08/07 05:13:36;;;;;;;0.60;0.10;;;14.40;99.90;;;;;;4955912;29;20844;-72
2023/08/07 05:16:04;;;;;;;0.60;0.10;;;14.40;99.90;;;;;;4953001;29;20451;-72
2023/08/07 05:18:32;;;;;;;0.60;0.10;;;14.50;99.90;;;;;;4955311;29;20457;-72
2023/08/07 05:21:00;;;;;;;0.60;0.10;;;14.50;99.90;;;;;;4954730;28;20497;-72
2023/08/07 05:23:28;;;;;;;0.60;0.10;;;14.40;99.90;;;;;;4955659;29;20448;-73
2023/08/07 05:25:56;;;;;;;0.60;0.20;;;14.30;99.90;;;;;;4955392;29;21028;-72
2023/08/07 05:28:25;;;;;;;0.80;0.37;;;14.30;99.90;;;;;;4955795;29;20545;-72
2023/08/07 05:30:53;;;;;;;5.93;1.03;;;14.20;99.90;;;;;;4956100;28;20498;-73
2023/08/07 05:33:21;;;;;;;0.60;0.10;;;14.20;99.90;;;;;;4956791;29;20499;-73
2023/08/07 05:35:49;;;;;;;0.60;0.10;;;14.30;99.90;;;;;;4945041;29;20449;-72
2023/08/07 05:38:17;;;;;;;0.73;0.20;;;14.20;99.90;;;;;;4936779;29;20445;-72
2023/08/07 05:40:45;;;;;;;0.90;0.30;;;14.20;99.90;;;;;;4953353;28;20463;-73
2023/08/07 05:43:13;;;;;;;0.63;0.23;;;14.20;99.90;;;;;;4951499;29;20489;-73
2023/08/07 05:45:44;;;;;;;0.80;0.30;;;14.20;99.90;;;;;;4935991;29;20801;-73
2023/08/07 05:48:12;;;;;;;0.80;0.30;;;14.30;99.90;;;;;;4940284;29;20538;-73
2023/08/07 05:50:40;;;;;;;0.60;0.10;;;14.30;99.90;;;;;;4963401;28;20500;-73
2023/08/07 05:53:08;;;;;;;0.60;0.10;;;14.40;99.90;;;;;;4968093;29;20461;-72
2023/08/07 05:55:36;;;;;;;0.97;0.50;;;14.40;99.90;;;;;;4965045;29;20475;-73
2023/08/07 05:58:04;;;;;;;0.60;0.10;;;14.40;99.90;;;;;;4955878;29;20451;-72
2023/08/07 06:00:32;;;;;;;0.60;0.10;;;14.50;99.90;;;;;;4955698;28;20488;-72
2023/08/07 06:03:01;;;;;;;0.60;0.20;;;14.50;99.90;;;;;;4955320;29;20488;-72
2023/08/07 06:05:29;;;;;;;0.60;0.10;;;14.50;99.90;;;;;;4954624;29;20455;-72
2023/08/07 06:07:57;;;;;;;0.83;0.47;;;14.50;99.90;;;;;;4955248;29;20583;-73
2023/08/07 06:10:26;;;;;;;3.03;1.77;;;14.40;99.90;;;;;;4951870;28;21029;-73
2023/08/07 06:12:54;;;;;;;0.70;0.30;;;14.20;99.90;;;;;;4953752;29;20941;-72
2023/08/07 06:15:21;;;;;;;1.10;0.50;;;14.20;99.90;;;;;;4943822;29;20546;-72
2023/08/07 06:17:51;;;;;;;2.70;0.50;;;14.10;99.90;;;;;;4936976;29;20482;-72
2023/08/07 06:20:26;;;;;;;0.70;0.50;;;14.10;99.90;;;;;;4951416;28;20460;-72
2023/08/07 06:22:54;;;;;;;0.70;0.37;;;14.10;99.90;;;;;;4954183;29;20574;-72
2023/08/07 06:25:22;;;;;;;0.70;0.30;;;14.10;99.90;;;;;;4953821;29;20462;-72
2023/08/07 06:27:52;;;;;;;0.70;0.37;;;14.00;99.90;;;;;;4953489;28;20481;-73
2023/08/07 06:30:20;;;;;;;0.60;0.10;;;14.00;99.90;;;;;;4954005;28;20552;-72
2023/08/07 06:32:48;;;;;;;1.07;0.47;;;14.10;99.90;;;;;;4954534;29;20984;-72
2023/08/07 06:35:16;;;;;;;0.70;0.47;;;14.00;99.90;;;;;;4953870;29;20457;-73
2023/08/07 06:37:45;;;;;;;0.60;0.20;;;14.00;99.90;;;;;;4953832;28;20551;-72
2023/08/07 06:40:13;;;;;;;0.90;0.70;;;14.00;99.90;;;;;;4954302;28;20540;-72
2023/08/07 06:42:41;;;;;;;1.30;1.03;;;14.00;99.90;;;;;;4953945;29;21047;-72
2023/08/07 06:45:09;;;;;;;0.80;0.40;;;14.00;99.90;;;;;;4950337;29;20543;-72
2023/08/07 06:47:37;;;;;;;0.60;0.10;;;14.10;99.90;;;;;;4953321;29;20537;-72
2023/08/07 06:50:06;;;;;;;0.60;0.30;;;14.00;99.90;;;;;;4944528;28;20461;-71
2023/08/07 06:52:33;;;;;;;0.60;0.10;;;14.00;99.90;;;;;;4946017;28;20494;-73
2023/08/07 06:55:03;;;;;;;0.60;0.20;;;14.00;99.90;;;;;;4948699;29;20455;-71
2023/08/07 06:57:30;;;;;;;0.60;0.20;;;14.10;99.90;;;;;;4948263;29;21121;-71
2023/08/07 06:59:58;;;;;;;0.60;0.10;;;14.20;99.90;;;;;;4945958;28;20525;-74
2023/08/07 07:02:26;;;;;;;0.60;0.10;;;14.20;99.90;;;;;;4946879;28;20838;-75
2023/08/07 07:04:54;;;;;;;1.20;0.87;;;14.20;99.90;;;;;;4940741;29;20454;-72
2023/08/07 07:07:22;;;;;;;0.80;0.30;;;14.20;99.90;;;;;;4938926;29;20456;-73
2023/08/07 07:09:50;;;;;;;0.90;0.57;;;14.20;99.90;;;;;;4953119;29;20524;-72
2023/08/07 07:12:19;;;;;;;0.60;0.10;;;14.30;99.90;;;;;;4952820;28;20509;-71
2023/08/07 07:14:47;;;;;;;0.60;0.50;;;14.30;99.90;;;;;;4953216;29;20486;-73
2023/08/07 07:17:15;;;;;;;1.80;0.20;;;14.20;99.90;;;;;;4953245;28;20454;-72
2023/08/07 07:19:43;;;;;;;3.33;0.93;;;14.20;99.90;;;;;;4953795;29;20448;-73
2023/08/07 07:22:11;;;;;;;1.00;0.90;;;14.20;99.90;;;;;;4952172;28;20469;-70
2023/08/07 07:24:40;;;;;;;0.60;0.20;;;14.30;99.90;;;;;;4949724;29;20456;-71
2023/08/07 07:27:08;;;;;;;0.60;0.10;;;14.40;99.90;;;;;;4948608;29;20495;-71
2023/08/07 07:29:37;;;;;;;1.20;1.10;;;14.40;99.90;;;;;;4953525;28;20496;-72
2023/08/07 07:32:06;;;;;;;0.60;0.30;;;14.30;99.90;;;;;;4953947;28;20467;-74
2023/08/07 07:34:34;;;;;;;0.73;0.50;;;14.40;99.90;;;;;;4954192;28;20503;-73
2023/08/07 07:37:02;;;;;;;7.50;0.60;;;14.50;99.90;;;;;;4953616;28;20536;-76
2023/08/07 07:39:30;;;;;;;0.70;0.60;;;14.50;99.90;;;;;;4954165;29;20550;-75
2023/08/07 07:41:58;;;;;;;0.80;0.40;;;14.50;99.90;;;;;;4954758;28;20501;-74
2023/08/07 07:44:26;;;;;;;1.17;0.30;;;14.50;99.90;;;;;;4941546;29;20560;-73
2023/08/07 07:46:55;;;;;;;0.60;0.10;;;14.50;99.90;;;;;;4939574;29;20501;-73
2023/08/07 07:49:24;;;;;;;1.97;1.23;;;14.60;99.90;;;;;;4936343;29;20456;-74
2023/08/07 07:51:51;;;;;;;0.60;0.20;;;14.50;99.90;;;;;;4935024;29;20508;-73
2023/08/07 07:54:19;;;;;;;1.10;0.87;;;14.50;99.90;;;;;;4935127;29;20455;-74
2023/08/07 07:56:47;;;;;;;0.60;0.10;;;14.50;99.90;;;;;;4949024;29;20471;-73
2023/08/07 07:59:16;;;;;;;0.77;0.60;;;14.40;99.90;;;;;;4953639;28;20444;-73
2023/08/07 08:01:43;;;;;;;0.90;0.60;;;14.50;99.90;;;;;;4956427;28;20492;-74
2023/08/07 08:04:13;;;;;;;0.60;0.17;;;14.50;99.90;;;;;;4955673;29;20494;-74
2023/08/07 08:06:41;;;;;;;9.17;0.60;;;14.60;99.90;;;;;;4947483;29;20449;-74
2023/08/07 08:09:09;;;;;;;0.83;0.30;;;14.50;99.90;;;;;;4953702;29;20451;-74
2023/08/07 08:11:38;;;;;;;0.60;0.20;;;;;;;;;;4950030;28;20888;-73
2023/08/07 08:14:06;;;;;;;0.80;0.40;;;14.60;99.90;;;;;;4954319;28;20467;-72
2023/08/07 08:16:34;;;;;;;0.80;0.40;;;14.50;99.90;;;;;;4956905;29;20464;-71
2023/08/07 08:19:02;;;;;;;0.70;0.30;;;14.50;99.90;;;;;;4957006;29;20515;-72
2023/08/07 08:21:31;;;;;;;0.70;0.30;;;14.50;99.90;;;;;;4957376;28;20477;-71
2023/08/07 08:24:00;;;;;;;3.17;1.90;;;14.60;99.90;;;;;;4956452;28;20489;-73
2023/08/07 08:26:28;;;;;;;1.17;0.50;;;14.60;99.90;;;;;;4956504;28;20879;-72
2023/08/07 08:28:56;;;;;;;0.70;0.50;;;14.50;99.90;;;;;;4956393;29;20495;-72
2023/08/07 08:31:24;;;;;;;0.60;0.10;;;14.50;99.90;;;;;;4956663;28;20563;-73
2023/08/07 08:33:52;;;;;;;0.60;0.20;;;;;;;;;;4956966;29;20822;-71
2023/08/07 08:36:20;;;;;;;0.77;0.57;;;14.60;99.90;;;;;;4958113;29;20859;-73
2023/08/07 08:38:51;;;;;;;0.63;0.30;;;14.70;99.90;;;;;;4957008;28;20479;-74
2023/08/07 08:41:20;;;;;;;0.60;0.20;;;14.80;99.90;;;;;;4958266;28;20475;-73
2023/08/07 08:43:50;;;;;;;1.17;0.40;;;14.80;99.90;;;;;;4948925;29;20478;-72
2023/08/07 08:46:21;;;;;;;1.13;0.77;;;14.80;99.90;;;;;;4949891;29;20454;-72
2023/08/07 08:48:52;;;;;;;0.60;0.10;;;14.90;99.90;;;;;;4955009;28;20528;-72
2023/08/07 08:51:21;;;;;;;0.60;0.20;;;15.00;99.90;;;;;;4965886;28;20474;-72
2023/08/07 08:53:52;;;;;;;1.00;0.50;;;14.90;99.90;;;;;;4963308;29;20448;-72
2023/08/07 08:56:22;;;;;;;0.87;0.60;;;14.80;99.90;;;;;;4960400;28;20576;-74
2023/08/07 08:58:51;;;;;;;12.77;1.80;;;14.70;99.90;;;;;;4958490;28;20543;-71
2023/08/07 09:01:19;;;;;;;0.60;0.10;;;14.70;99.90;;;;;;4956554;28;20492;-71
2023/08/07 09:03:52;;;;;;;11.63;0.50;;;14.80;99.90;;;;;;4959661;28;20514;-73
2023/08/07 09:06:20;;;;;;;1.73;1.37;;;14.70;99.90;;;;;;4959754;28;20456;-73
2023/08/07 09:08:49;;;;;;;1.60;0.50;;;14.70;99.90;;;;;;4958850;28;20460;-74
2023/08/07 09:11:20;;;;;;;1.00;0.30;;;14.70;99.90;;;;;;4945245;28;20478;-74
2023/08/07 09:13:49;;;;;;;1.37;0.57;;;14.60;99.90;;;;;;4949799;28;20964;-73
2023/08/07 09:16:18;;;;;;;0.80;0.50;;;14.60;99.90;;;;;;4945076;29;20447;-73
2023/08/07 09:18:48;;;;;;;0.60;0.20;;;14.50;99.90;;;;;;4954818;29;20487;-73
2023/08/07 09:21:17;;;;;;;0.60;0.10;;;14.60;99.90;;;;;;4955130;28;20508;-74
2023/08/07 09:23:45;;;;;;;0.90;0.43;;;14.70;99.90;;;;;;4952816;29;20522;-71
2023/08/07 09:26:22;;;;;;;0.60;0.20;;;14.70;99.90;;;;;;4952852;28;20497;-75
2023/08/07 09:28:53;;;;;;;0.80;0.30;;;14.80;99.90;;;;;;4937244;29;20458;-75
2023/08/07 09:31:22;;;;;;;0.60;0.10;;;14.90;99.90;;;;;;4935370;29;20483;-74
2023/08/07 09:33:50;;;;;;;1.00;0.63;;;14.80;99.90;;;;;;4944666;29;20824;-74
2023/08/07 09:36:18;;;;;;;0.60;0.10;;;14.90;99.90;;;;;;4953858;28;20457;-75
2023/08/07 09:38:51;;;;;;;0.60;0.10;;;14.90;99.90;;;;;;4954187;29;20556;-73
2023/08/07 09:41:19;;;;;;;1.90;0.60;;;14.90;99.90;;;;;;4949560;29;20567;-73
2023/08/07 09:43:48;;;;;;;0.70;0.30;;;15.00;99.90;;;;;;4951648;28;20540;-72
2023/08/07 09:46:19;;;;;;;0.60;0.10;;;15.00;99.90;;;;;;4953525;28;20456;-72
2023/08/07 09:48:47;;;;;;;0.60;0.20;;;15.00;99.90;;;;;;4950927;29;20465;-76
2023/08/07 09:51:15;;;;;;;0.77;0.30;;;15.00;99.90;;;;;;4953001;28;20902;-74
2023/08/07 09:53:42;;;;;;;0.60;0.10;;;15.00;99.90;;;;;;4953133;29;20459;-74
2023/08/07 09:56:10;;;;;;;0.70;0.30;;;15.10;99.90;;;;;;4954425;29;20457;-76
2023/08/07 09:58:38;;;;;;;0.60;0.20;;;15.10;99.90;;;;;;4951785;29;20459;-75
2023/08/07 10:01:09;;;;;;;0.60;0.20;;;15.20;99.90;;;;;;4944650;28;20537;-75
2023/08/07 10:03:39;;;;;;;0.60;0.20;;;15.20;99.90;;;;;;4952450;29;20874;-74
2023/08/07 10:06:08;;;;;;;0.60;0.10;;;15.20;99.90;;;;;;4946210;29;20471;-73
2023/08/07 10:08:37;;;;;;;0.60;0.23;;;15.20;99.90;;;;;;4936126;29;20488;-73
2023/08/07 10:11:07;;;;;;;0.60;0.10;;;15.10;99.90;;;;;;4946684;28;20488;-74
2023/08/07 10:13:35;;;;;;;0.60;0.10;;;15.10;99.90;;;;;;4947498;28;20436;-74
2023/08/07 10:16:07;;;;;;;0.60;0.30;;;;;;;;;;4936230;29;20610;-74
2023/08/07 10:18:36;;;;;;;0.60;0.20;;;14.90;99.90;;;;;;4953642;28;20499;-74
2023/08/07 10:21:07;;;;;;;0.60;0.20;;;14.90;99.90;;;;;;4946004;28;20499;-74
2023/08/07 10:23:36;;;;;;;0.60;0.10;;;14.90;99.90;;;;;;4945588;28;20440;-74
2023/08/07 10:26:07;;;;;;;0.60;0.10;;;14.90;99.90;;;;;;4953800;29;20938;-72
2023/08/07 10:28:40;;;;;;;0.60;0.10;;;14.80;99.90;;;;;;4951939;29;20561;-73
2023/08/07 10:31:09;;;;;;;0.60;0.30;;;14.70;99.90;;;;;;4945363;28;20483;-78
2023/08/07 10:33:37;;;;;;;0.60;0.17;;;14.70;99.90;;;;;;4952695;29;20537;-74
2023/08/07 10:36:11;;;;;;;0.60;0.10;;;14.80;99.90;;;;;;4953937;28;20484;-75
2023/08/07 10:38:39;;;;;;;0.60;0.20;;;14.80;99.90;;;;;;4953386;29;20970;-75
2023/08/07 10:41:08;;;;;;;0.60;0.10;;;14.80;99.90;;;;;;4953817;28;20477;-73
2023/08/07 10:43:41;;;;;;;0.60;0.10;;;14.90;99.90;;;;;;4954772;29;20451;-75
2023/08/07 10:46:11;;;;;;;0.80;0.33;;;14.90;99.90;;;;;;4934964;29;20530;-73
2023/08/07 10:48:41;;;;;;;0.60;0.20;;;15.00;99.90;;;;;;4945762;28;20900;-74
2023/08/07 10:51:13;;;;;;;0.60;0.10;;;15.00;99.90;;;;;;4953978;28;20471;-74
2023/08/07 10:53:44;;;;;;;1.33;0.50;;;15.00;99.90;;;;;;4953374;29;20461;-73
2023/08/07 10:56:18;;;;;;;0.70;0.27;;;15.00;99.90;;;;;;4953526;29;20479;-73
2023/08/07 10:58:51;;;;;;;0.60;0.20;;;15.00;99.90;;;;;;4953329;29;20490;-75
2023/08/07 11:01:21;;;;;;;0.60;0.10;;;12.30;99.90;;;;;;4953086;28;20931;-73
2023/08/07 11:03:51;;;;;;;0.80;0.47;;;15.10;99.90;;;;;;4951608;29;20462;-73
2023/08/07 11:06:24;;;;;;;1.57;0.63;;;15.10;99.90;;;;;;4952522;29;21076;-72
2023/08/07 11:08:52;;;;;;;0.70;0.20;;;15.00;99.90;;;;;;4945832;29;20484;-73
2023/08/07 11:11:20;;;;;;;0.60;0.20;;;15.00;99.90;;;;;;4953773;28;20475;-73
2023/08/07 11:13:48;;;;;;;0.60;0.10;;;15.10;99.90;;;;;;4953375;29;20451;-73
2023/08/07 11:16:16;;;;;;;0.60;0.27;;;15.10;99.90;;;;;;4953394;28;20444;-72
2023/08/07 11:18:44;;;;;;;0.80;0.30;;;15.20;99.90;;;;;;4950556;29;21187;-73
2023/08/07 11:21:12;;;;;;;1.17;1.03;;;15.20;99.90;;;;;;4951042;28;20569;-73
2023/08/07 11:23:43;;;;;;;0.60;0.30;;;15.20;99.90;;;;;;4951194;29;20464;-74
2023/08/07 11:26:12;;;;;;;0.60;0.10;;;15.20;99.90;;;;;;4948803;29;20481;-73
2023/08/07 11:28:39;;;;;;;0.60;0.10;;;15.30;99.90;;;;;;4935237;29;20453;-73
2023/08/07 11:31:07;;;;;;;0.60;0.30;;;15.40;99.90;;;;;;4948450;28;20535;-72
2023/08/07 11:33:37;;;;;;;0.60;0.10;;;15.40;99.90;;;;;;4954092;28;20456;-73
2023/08/07 11:36:12;;;;;;;0.60;0.20;;;15.50;99.90;;;;;;4955015;28;20466;-73
2023/08/07 11:38:43;;;;;;;0.60;0.10;;;15.40;99.90;;;;;;4951706;29;20472;-73
2023/08/07 11:41:13;;;;;;;0.60;0.10;;;15.50;99.90;;;;;;4957379;28;20551;-73
2023/08/07 11:43:44;;;;;;;0.60;0.10;;;15.50;99.90;;;;;;4957500;29;20456;-73
2023/08/07 11:46:13;;;;;;;0.60;0.10;;;15.60;99.90;;;;;;4960362;28;20514;-73
2023/08/07 11:48:45;;;;;;;0.90;0.40;;;15.60;99.90;;;;;;4960935;29;20799;-74
2023/08/07 11:51:13;;;;;;;2.60;1.23;;;15.60;99.90;;;;;;4961491;28;20481;-73
2023/08/07 11:53:46;;;;;;;0.60;0.10;;;15.60;99.90;;;;;;4961353;29;20535;-74
2023/08/07 11:56:15;;;;;;;1.13;0.63;;;15.60;99.90;;;;;;4953527;29;20810;-73
2023/08/07 11:58:45;;;;;;;0.60;0.10;;;15.70;99.90;;;;;;4959888;29;20500;-73
2023/08/07 12:01:17;;;;;;;0.90;0.43;;;15.70;99.90;;;;;;4954518;29;21010;-75
2023/08/07 12:03:57;;;;;;;0.60;0.10;;;15.80;99.90;;;;;;4957452;29;20448;-76
2023/08/07 12:06:26;;;;;;;0.60;0.10;;;15.80;99.90;;;;;;4953713;29;20501;-75
2023/08/07 12:08:57;;;;;;;0.60;0.10;;;15.90;99.90;;;;;;4952373;29;20458;-73
2023/08/07 12:11:25;;;;;;;0.60;0.10;;;16.00;99.90;;;;;;4949294;28;20489;-74
2023/08/07 12:13:56;;;;;;;1.47;0.30;;;16.10;99.90;;;;;;4948927;29;20472;-72
2023/08/07 12:16:23;;;;;;;0.60;0.10;;;16.20;99.90;;;;;;4952545;29;20548;-72
2023/08/07 12:18:53;;;;;;;0.60;0.10;;;;;;;;;;4950420;29;20478;-72
2023/08/07 12:21:23;;;;;;;0.60;0.10;;;16.40;99.90;;;;;;4956273;28;20512;-74
2023/08/07 12:23:52;;;;;;;0.60;0.10;;;16.40;99.90;;;;;;4956212;29;20462;-73
2023/08/07 12:26:21;;;;;;;1.60;1.50;;;16.50;99.90;;;;;;4955901;29;20493;-73
2023/08/07 12:28:50;;;;;;;0.60;0.10;;;16.50;99.90;;;;;;4955700;29;20463;-72
2023/08/07 12:31:18;;;;;;;0.60;0.10;;;16.60;99.90;;;;;;4956059;28;20568;-73
2023/08/07 12:33:46;;;;;;;0.60;0.10;;;16.70;99.90;;;;;;4955569;29;20453;-73
2023/08/07 12:36:15;;;;;;;0.80;0.50;;;16.80;99.90;;;;;;4955154;29;21218;-74
2023/08/07 12:38:46;;;;;;;0.60;0.20;;;17.00;99.90;;;;;;4951387;29;20451;-73
2023/08/07 12:41:15;;;;;;;0.60;0.10;;;17.10;99.90;;;;;;4943658;29;20470;-75
2023/08/07 12:46:30;;;;;;;0.60;0.10;;;;;;;;;;5013487;23;20600;-79
2023/08/07 12:48:59;;;;;;;0.60;0.10;;;;;;;;;;4917969;29;20829;-80
2023/08/07 12:51:27;;;;;;;3.07;1.03;;;17.60;99.90;;;;;;4917728;29;20551;-78
2023/08/07 12:53:55;;;;;;;0.60;0.20;;;17.70;99.90;;;;;;4916651;29;20484;-78
2023/08/07 12:56:23;;;;;;;0.60;0.10;;;17.70;99.90;;;;;;4923284;29;20443;-77
2023/08/07 12:58:51;;;;;;;0.60;0.10;;;17.80;99.90;;;;;;4917529;29;20504;-77
2023/08/07 13:01:20;;;;;;;0.60;0.10;;;17.90;99.90;;;;;;4917969;29;20456;-78
2023/08/07 13:03:49;;;;;;;0.70;0.50;;;17.90;99.90;;;;;;4918484;29;20463;-77
2023/08/07 13:06:17;;;;;;;0.60;0.20;;;17.80;99.90;;;;;;4920196;29;20530;-77
2023/08/07 13:08:46;;;;;;;0.60;0.10;;;17.90;99.90;;;;;;4919217;29;20484;-79
2023/08/07 13:11:14;;;;;;;0.60;0.30;;;17.90;99.90;;;;;;4921977;29;20457;-78
2023/08/07 13:13:42;;;;;;;2.67;0.57;;;18.00;99.90;;;;;;4925130;29;20485;-76
2023/08/07 13:16:11;;;;;;;3.53;1.57;;;17.90;99.90;;;;;;4910452;29;20481;-79
2023/08/07 13:18:38;;;;;;;0.60;0.30;;;18.00;99.90;;;;;;4904436;29;20885;-77
2023/08/07 13:21:08;;;;;;;0.60;0.10;;;;;;;;;;4920158;29;20550;-79
2023/08/07 13:23:36;;;;;;;0.60;0.10;;;;;;;;;;4925194;29;20508;-80
2023/08/07 13:26:04;;;;;;;1.57;0.70;;;18.30;99.90;;;;;;4936177;29;20495;-79
2023/08/07 13:28:32;;;;;;;0.70;0.40;;;18.40;98.40;;;;;;4923780;29;20455;-79
2023/08/07 13:31:00;;;;;;;1.50;0.70;;;18.50;94.40;;;;;;4899277;29;20489;-79
2023/08/07 13:33:28;;;;;;;1.43;0.27;;;18.40;92.00;;;;;;4919068;29;21134;-78
2023/08/07 13:35:56;;;;;;;2.00;0.50;;;18.40;92.80;;;;;;4916226;29;20816;-79
2023/08/07 13:38:25;;;;;;;1.63;0.53;;;18.30;90.00;;;;;;4900736;29;20545;-77
2023/08/07 13:40:53;;;;;;;0.60;0.10;;;18.40;92.60;;;;;;4927670;29;20471;-77
2023/08/07 13:43:21;;;;;;;1.53;0.63;;;18.50;87.50;;;;;;4926957;29;20945;-77
2023/08/07 13:45:50;;;;;;;0.60;0.10;;;18.50;89.20;;;;;;4921155;29;20504;-78
2023/08/07 13:48:18;;;;;;;0.70;0.60;;;18.60;85.70;;;;;;4920573;29;20460;-78
2023/08/07 13:50:47;;;;;;;0.60;0.10;;;;;;;;;;4926239;29;20464;-79
2023/08/07 13:53:15;;;;;;;0.70;0.40;;;18.50;77.50;;;;;;4932601;29;20448;-79
2023/08/07 13:55:45;;;;;;;0.60;0.10;;;18.50;79.10;;;;;;4935116;29;20529;-80
2023/08/07 13:58:15;;;;;;;0.60;0.20;;;18.70;74.50;;;;;;4934038;29;20456;-80
2023/08/07 14:00:43;;;;;;;0.70;0.50;;;;;;;;;;4933970;29;20484;-79
2023/08/07 14:03:12;;;;;;;0.70;0.20;;;18.90;72.40;;;;;;4921708;29;20528;-79
2023/08/07 14:05:41;;;;;;;0.60;0.13;;;19.00;72.60;;;;;;4921107;29;20452;-78
2023/08/07 14:08:10;;;;;;;0.80;0.50;;;19.10;65.50;;;;;;4920582;29;20820;-79
2023/08/07 14:10:41;;;;;;;0.60;0.10;;;19.10;68.00;;;;;;4927560;29;20468;-80
2023/08/07 14:13:30;;;;;;;0.80;0.50;;;19.30;65.20;;;;;;4941107;29;20444;-80
2023/08/07 14:15:58;;;;;;;0.70;0.30;;;19.50;62.80;;;;;;4950207;29;20520;-79
2023/08/07 14:18:26;;;;;;;0.60;0.20;;;19.50;55.80;;;;;;4943735;29;20475;-78
2023/08/07 14:20:54;;;;;;;0.60;0.20;;;19.70;57.10;;;;;;4939220;29;20455;-79
2023/08/07 14:23:30;;;;;;;0.80;0.20;;;;;;;;;;4941487;29;20435;-79
2023/08/07 14:26:01;;;;;;;0.60;0.10;;;19.70;51.10;;;;;;4940837;29;20455;-80
2023/08/07 14:28:31;;;;;;;0.60;0.10;;;19.90;47.90;;;;;;4941374;29;20461;-80
2023/08/07 14:30:59;;;;;;;1.03;1.03;;;19.90;45.60;;;;;;4940334;29;20492;-80
2023/08/07 14:33:29;;;;;;;1.07;0.20;;;20.00;43.20;;;;;;4941621;29;20462;-80
2023/08/07 14:35:57;;;;;;;0.60;0.10;;;20.10;37.30;;;;;;4939623;29;20444;-79
2023/08/07 14:38:26;;;;;;;0.60;0.20;;;20.20;34.70;;;;;;4941101;29;20524;-80
2023/08/07 14:40:55;;;;;;;0.70;0.20;;;;;;;;;;4940815;29;20462;-80
2023/08/07 14:43:23;;;;;;;1.87;0.60;;;20.50;29.10;;;;;;4938161;29;20531;-79
2023/08/07 14:45:54;;;;;;;4.50;0.70;;;;;;;;;;4923247;29;20529;-79
2023/08/07 14:48:22;;;;;;;1.23;0.63;;;20.60;21.50;;;;;;4921147;29;20446;-79
2023/08/07 14:50:50;;;;;;;2.70;0.80;;;20.60;21.20;;;;;;4917990;29;20516;-72
2023/08/07 14:53:19;;;;;;;0.60;0.10;;;20.50;22.70;;;;;;4914660;29;20862;-71
2023/08/07 14:55:47;;;;;;;0.60;0.10;;;;;;;;;;4917333;29;20480;-71
2023/08/07 14:58:15;;;;;;;0.60;0.10;;;;;;;;;;4933101;29;20547;-70
2023/08/07 15:00:43;;;;;;;0.60;0.10;;;;;;;;;;4925978;29;20558;-70
2023/08/07 15:03:13;;;;;;;0.60;0.20;;;;;;;;;;4924742;29;20464;-71
2023/08/07 15:05:41;;;;;;;0.60;0.10;;;;;;;;;;4915330;29;20575;-70
2023/08/07 15:08:09;;;;;;;0.60;0.20;;;20.90;15.50;;;;;;4909862;29;20488;-77
2023/08/07 15:10:39;;;;;;;0.60;0.20;;;20.90;16.50;;;;;;4911660;29;20507;-73
2023/08/07 15:13:07;;;;;;;0.60;0.20;;;21.00;10.90;;;;;;4921703;29;20492;-75
2023/08/07 15:15:35;;;;;;;0.60;0.10;;;21.10;10.10;;;;;;4912128;29;20512;-73
2023/08/07 15:18:05;;;;;;;0.93;0.83;;;21.00;5.50;;;;;;4923033;29;20515;-77
2023/08/07 15:20:36;;;;;;;0.60;0.20;;;21.00;4.80;;;;;;4931298;29;20483;-76
2023/08/07 15:23:04;;;;;;;8.90;3.60;;;21.10;4.80;;;;;;4912429;29;20486;-77
2023/08/07 15:25:32;;;;;;;0.60;0.10;;;21.30;2.80;;;;;;4923522;29;20491;-77
2023/08/07 15:28:02;;;;;;;2.40;1.03;;;21.40;3.50;;;;;;4919575;29;20997;-76
2023/08/07 15:30:31;;;;;;;0.93;0.67;;;21.40;1.00;;;;;;4920026;29;20470;-73
2023/08/07 15:32:58;;;;;;;1.13;1.03;;;21.20;1.00;;;;;;4913368;29;20531;-72
2023/08/07 15:35:29;;;;;;;0.60;0.10;;;21.00;1.00;;;;;;4907164;29;20490;-69
2023/08/07 15:37:59;;;;;;;0.60;0.10;;;21.00;1.00;;;;;;4919679;29;20445;-69
2023/08/07 15:40:28;;;;;;;0.63;0.27;;;21.00;1.00;;;;;;4900473;29;20479;-68
2023/08/07 15:42:55;;;;;;;0.60;0.10;;;21.00;1.00;;;;;;4899543;29;20445;-68
2023/08/07 15:45:23;;;;;;;0.70;0.30;;;21.10;1.00;;;;;;4897800;29;20489;-68
2023/08/07 15:47:52;;;;;;;0.90;0.50;;;21.10;1.00;;;;;;4910651;29;20499;-69
2023/08/07 15:50:20;;;;;;;1.90;1.40;;;21.10;1.00;;;;;;4917558;29;21012;-68
2023/08/07 15:52:48;;;;;;;0.60;0.20;;;20.90;1.00;;;;;;4899662;29;20522;-74
2023/08/07 15:55:17;;;;;;;0.60;0.10;;;20.80;1.00;;;;;;4894373;29;20480;-71
2023/08/07 15:57:45;;;;;;;0.60;0.10;;;20.70;1.00;;;;;;4903545;29;20449;-75
2023/08/07 16:00:14;;;;;;;0.60;0.10;;;20.70;1.00;;;;;;4911574;29;20536;-74
2023/08/07 16:02:42;;;;;;;0.60;0.10;;;20.70;1.00;;;;;;4918682;29;20454;-71
2023/08/07 16:05:10;;;;;;;0.60;0.17;;;20.70;1.00;;;;;;4902176;29;20484;-71
2023/08/07 16:07:38;;;;;;;1.17;0.73;;;;;;;;;;4910037;29;20560;-70
2023/08/07 16:10:07;;;;;;;0.60;0.30;;;21.20;1.00;;;;;;4905358;29;20445;-69
2023/08/07 16:12:37;;;;;;;0.60;0.13;;;21.50;1.00;;;;;;4905199;29;20450;-75
2023/08/07 16:15:05;;;;;;;0.60;0.10;;;21.80;1.00;;;;;;4904085;29;20477;-73
2023/08/07 16:17:34;;;;;;;0.60;0.30;;;;;;;;;;4914373;29;20451;-74
2023/08/07 16:20:02;;;;;;;6.77;0.50;;;22.20;1.00;;;;;;4921962;29;20450;-68
2023/08/07 16:22:30;;;;;;;1.00;0.90;;;;;;;;;;4915524;29;20931;-74
2023/08/07 16:24:58;;;;;;;0.60;0.20;;;22.30;1.00;;;;;;4905869;29;20545;-74
2023/08/07 16:27:25;;;;;;;0.60;0.10;;;22.20;3.90;;;;;;4923549;29;20527;-73
2023/08/07 16:29:55;;;;;;;0.60;0.20;;;22.10;1.00;;;;;;4920235;29;20463;-71
2023/08/07 16:32:23;;;;;;;0.70;0.23;;;22.20;1.00;;;;;;4908742;29;20499;-70
2023/08/07 16:34:50;;;;;;;3.00;2.77;;;22.40;1.00;;;;;;4909661;29;20471;-75
2023/08/07 16:37:19;;;;;;;0.60;0.10;;;;;;;;;;4917687;29;20474;-73
2023/08/07 16:39:47;;;;;;;0.60;0.10;;;22.10;1.00;;;;;;4903595;29;20472;-74
2023/08/07 16:42:15;;;;;;;0.63;0.30;;;22.20;1.00;;;;;;4916508;29;20540;-70
2023/08/07 16:44:42;;;;;;;0.60;0.20;;;22.10;1.00;;;;;;4922251;29;20468;-74
2023/08/07 16:47:12;;;;;;;3.00;1.70;;;22.10;1.00;;;;;;4914081;29;20488;-68
2023/08/07 16:49:39;;;;;;;0.70;0.53;;;22.00;1.00;;;;;;4918007;29;20470;-74
2023/08/07 16:52:08;;;;;;;0.60;0.10;;;22.00;1.00;;;;;;4912297;29;20866;-69
2023/08/07 16:54:36;;;;;;;1.53;0.50;;;21.80;1.00;;;;;;4925958;29;20552;-70
2023/08/07 16:57:04;;;;;;;0.60;0.20;;;21.60;1.00;;;;;;4918183;29;20959;-74
2023/08/07 16:59:33;;;;;;;0.60;0.20;;;;;;;;;;4915179;29;20456;-75
2023/08/07 17:02:00;;;;;;;0.97;0.87;;;21.50;1.00;;;;;;4909128;29;20540;-69
2023/08/07 17:04:32;;;;;;;2.00;1.90;;;21.50;1.00;;;;;;4925869;29;20529;-70
2023/08/07 17:07:01;;;;;;;0.60;0.10;;;;;;;;;;4926616;29;20448;-74